createdAt,value
2018-03-18T00:00:44.672Z,57.43
2018-03-18T00:03:12.950Z,58.50
2018-03-18T00:05:41.625Z,57.77
2018-03-18T00:08:10.059Z,57.20
2018-03-18T00:10:38.501Z,57.92
2018-03-18T00:13:06.769Z,57.26
2018-03-18T00:15:35.278Z,58.58
2018-03-18T00:18:03.630Z,59.48
2018-03-18T00:20:31.990Z,60.42
2018-03-18T00:23:00.382Z,60.67
2018-03-18T00:25:28.762Z,59.56
2018-03-18T00:27:58.053Z,61.01
2018-03-18T00:30:26.442Z,60.42
2018-03-18T00:32:54.613Z,60.64
2018-03-18T00:35:23.089Z,58.93
2018-03-18T00:37:51.473Z,60.18
2018-03-18T00:40:19.761Z,59.63
2018-03-18T00:42:48.176Z,60.34
2018-03-18T00:45:16.408Z,58.81
2018-03-18T00:47:45.393Z,58.61
2018-03-18T00:50:13.753Z,57.68
2018-03-18T00:52:42.401Z,58.59
2018-03-18T00:55:10.630Z,60.03
2018-03-18T00:57:38.806Z,59.72
2018-03-18T01:00:07.282Z,61.00
2018-03-18T01:02:35.703Z,60.92
2018-03-18T01:05:04.038Z,60.55
2018-03-18T01:07:32.418Z,58.35
2018-03-18T01:10:00.788Z,59.95
2018-03-18T01:12:29.174Z,58.95
2018-03-18T01:14:57.249Z,59.33
2018-03-18T01:17:25.620Z,58.69
2018-03-18T01:19:53.892Z,57.87
2018-03-18T01:22:22.175Z,58.16
2018-03-18T01:24:50.951Z,58.07
2018-03-18T01:27:19.023Z,57.61
2018-03-18T01:29:47.202Z,57.53
2018-03-18T01:32:15.793Z,57.65
2018-03-18T01:34:44.265Z,57.26
2018-03-18T01:37:12.711Z,57.66
2018-03-18T01:39:41.017Z,57.63
2018-03-18T01:42:09.607Z,58.27
2018-03-18T01:44:37.993Z,57.38
2018-03-18T01:47:06.262Z,59.77
2018-03-18T01:49:34.738Z,59.97
2018-03-18T01:52:03.215Z,60.28
2018-03-18T01:54:31.700Z,59.11
2018-03-18T01:57:00.061Z,58.55
2018-03-18T01:59:28.254Z,59.81
2018-03-18T02:01:56.735Z,59.04
2018-03-18T02:04:25.212Z,60.49
2018-03-18T02:06:53.684Z,58.90
2018-03-18T02:09:22.175Z,58.87
2018-03-18T02:11:50.566Z,58.61
2018-03-18T02:14:18.956Z,58.66
2018-03-18T02:16:47.189Z,58.31
2018-03-18T02:19:15.784Z,58.03
2018-03-18T02:21:44.157Z,61.02
2018-03-18T02:24:12.649Z,62.42
2018-03-18T02:26:41.130Z,61.63
2018-03-18T02:29:09.284Z,60.41
2018-03-18T02:31:37.676Z,60.09
2018-03-18T02:34:06.040Z,59.59
2018-03-18T02:36:34.533Z,62.20
2018-03-18T02:39:03.018Z,64.40
2018-03-18T02:41:31.143Z,64.40
2018-03-18T02:43:59.669Z,62.52
2018-03-18T02:46:28.046Z,61.57
2018-03-18T02:48:56.257Z,63.46
2018-03-18T02:51:24.789Z,61.76
2018-03-18T02:53:53.286Z,63.99
2018-03-18T02:56:21.463Z,63.31
2018-03-18T02:58:49.845Z,62.53
2018-03-18T03:01:18.294Z,61.36
2018-03-18T03:03:46.794Z,62.26
2018-03-18T03:06:14.931Z,61.30
2018-03-18T03:08:43.548Z,63.72
2018-03-18T03:11:11.826Z,62.42
2018-03-18T03:13:40.404Z,60.95
2018-03-18T03:16:09.094Z,61.34
2018-03-18T03:18:37.255Z,63.25
2018-03-18T03:21:05.893Z,64.76
2018-03-18T03:23:34.233Z,61.89
2018-03-18T03:26:02.408Z,60.91
2018-03-18T03:28:30.577Z,61.31
2018-03-18T03:30:59.067Z,61.19
2018-03-18T03:33:27.334Z,61.02
2018-03-18T03:35:55.796Z,63.97
2018-03-18T03:38:24.094Z,62.22
2018-03-18T03:40:52.564Z,62.62
2018-03-18T03:43:20.949Z,64.08
2018-03-18T03:45:49.118Z,62.56
2018-03-18T03:48:17.598Z,61.59
2018-03-18T03:50:45.773Z,61.01
2018-03-18T03:53:14.353Z,61.40
2018-03-18T03:55:42.535Z,60.72
2018-03-18T03:58:10.995Z,60.47
2018-03-18T04:00:39.190Z,60.04
2018-03-18T04:03:07.357Z,59.93
2018-03-18T04:05:35.836Z,59.50
2018-03-18T04:08:04.420Z,59.81
2018-03-18T04:10:32.697Z,60.89
2018-03-18T04:13:01.381Z,60.00
2018-03-18T04:15:29.757Z,59.65
2018-03-18T04:17:58.063Z,59.59
2018-03-18T04:20:25.987Z,59.53
2018-03-18T04:22:54.495Z,58.72
2018-03-18T04:25:22.965Z,59.40
2018-03-18T04:27:51.379Z,59.20
2018-03-18T04:30:19.823Z,59.48
2018-03-18T04:32:48.405Z,58.94
2018-03-18T04:35:16.582Z,58.87
2018-03-18T04:37:45.058Z,59.43
2018-03-18T04:40:13.277Z,59.48
2018-03-18T04:42:41.814Z,59.79
2018-03-18T04:45:10.298Z,58.83
2018-03-18T04:47:38.775Z,58.14
2018-03-18T04:50:07.049Z,58.87
2018-03-18T04:52:35.418Z,60.66
2018-03-18T04:55:04.021Z,59.67
2018-03-18T04:57:32.393Z,61.12
2018-03-18T05:00:00.877Z,59.89
2018-03-18T05:02:29.454Z,59.90
2018-03-18T05:04:57.828Z,59.91
2018-03-18T05:07:26.240Z,59.42
2018-03-18T05:09:54.586Z,59.03
2018-03-18T05:12:22.852Z,59.45
2018-03-18T05:14:50.758Z,59.52
2018-03-18T05:17:19.108Z,59.22
2018-03-18T05:19:47.480Z,60.51
2018-03-18T05:22:15.752Z,59.53
2018-03-18T05:24:44.236Z,58.92
2018-03-18T05:27:12.609Z,59.20
2018-03-18T05:29:41.197Z,59.22
2018-03-18T05:32:09.680Z,60.00
2018-03-18T05:34:37.957Z,59.11
2018-03-18T05:37:06.437Z,61.55
2018-03-18T05:39:34.570Z,61.58
2018-03-18T05:42:02.989Z,61.22
2018-03-18T05:44:31.455Z,61.11
2018-03-18T05:46:59.949Z,59.98
2018-03-18T05:49:28.200Z,61.68
2018-03-18T05:51:56.644Z,60.63
2018-03-18T05:54:25.084Z,60.33
2018-03-18T05:56:53.640Z,61.24
2018-03-18T05:59:21.940Z,60.80
2018-03-18T06:01:50.016Z,63.27
2018-03-18T06:04:18.378Z,65.13
2018-03-18T06:06:46.756Z,63.72
2018-03-18T06:09:15.146Z,63.56
2018-03-18T06:11:43.625Z,63.03
2018-03-18T06:14:12.001Z,65.31
2018-03-18T06:16:40.981Z,67.04
2018-03-18T06:19:09.182Z,68.33
2018-03-18T06:21:37.762Z,68.45
2018-03-18T06:24:06.065Z,69.80
2018-03-18T06:26:34.435Z,70.53
2018-03-18T06:29:02.784Z,70.92
2018-03-18T06:31:31.278Z,72.02
2018-03-18T06:33:59.636Z,72.60
2018-03-18T06:36:28.330Z,73.70
2018-03-18T06:38:57.626Z,74.32
2018-03-18T06:41:26.026Z,74.15
2018-03-18T06:43:54.199Z,74.69
2018-03-18T06:46:22.386Z,75.12
2018-03-18T06:48:50.690Z,75.54
2018-03-18T06:51:19.854Z,76.06
2018-03-18T06:53:48.206Z,76.09
2018-03-18T06:56:16.690Z,75.56
2018-03-18T06:58:44.957Z,76.12
2018-03-18T07:01:13.498Z,75.34
2018-03-18T07:03:42.026Z,75.75
2018-03-18T07:06:10.481Z,75.25
2018-03-18T07:08:38.980Z,75.01
2018-03-18T07:11:07.366Z,76.58
2018-03-18T07:13:35.841Z,76.99
2018-03-18T07:16:04.094Z,77.34
2018-03-18T07:18:32.499Z,77.11
2018-03-18T07:21:00.974Z,76.56
2018-03-18T07:23:29.248Z,75.99
2018-03-18T07:25:57.940Z,75.36
2018-03-18T07:28:26.335Z,72.79
2018-03-18T07:30:55.698Z,74.04
2018-03-18T07:33:24.087Z,71.95
2018-03-18T07:35:52.464Z,71.62
2018-03-18T07:38:20.834Z,73.05
2018-03-18T07:40:49.328Z,71.72
2018-03-18T07:43:17.606Z,71.64
2018-03-18T07:45:46.193Z,69.62
2018-03-18T07:48:14.552Z,68.70
2018-03-18T07:50:43.048Z,71.65
2018-03-18T07:53:11.230Z,71.42
2018-03-18T07:55:40.014Z,71.72
2018-03-18T07:58:08.275Z,74.49
2018-03-18T08:00:37.179Z,73.37
2018-03-18T08:03:05.639Z,71.76
2018-03-18T08:05:34.030Z,71.77
2018-03-18T08:08:02.409Z,71.06
2018-03-18T08:10:30.962Z,72.13
2018-03-18T08:12:59.368Z,70.31
2018-03-18T08:15:27.698Z,71.74
2018-03-18T08:17:55.922Z,70.93
2018-03-18T08:20:24.187Z,71.32
2018-03-18T08:22:52.574Z,75.62
2018-03-18T08:25:21.050Z,77.07
2018-03-18T08:27:49.547Z,76.60
2018-03-18T08:30:17.904Z,77.56
2018-03-18T08:32:46.085Z,78.70
2018-03-18T08:35:15.264Z,76.86
2018-03-18T08:37:43.677Z,77.70
2018-03-18T08:40:12.041Z,74.90
2018-03-18T08:42:40.402Z,73.12
2018-03-18T08:45:08.792Z,72.41
2018-03-18T08:47:37.601Z,70.87
2018-03-18T08:50:05.964Z,71.74
2018-03-18T08:52:34.124Z,71.09
2018-03-18T08:55:02.130Z,72.17
2018-03-18T08:57:30.465Z,70.77
2018-03-18T08:59:59.163Z,71.90
2018-03-18T09:02:27.332Z,70.70
2018-03-18T09:04:55.805Z,74.46
2018-03-18T09:07:24.200Z,74.29
2018-03-18T09:09:52.560Z,78.08
2018-03-18T09:12:20.853Z,78.55
2018-03-18T09:14:49.271Z,79.14
2018-03-18T09:17:17.709Z,79.58
2018-03-18T09:19:46.208Z,80.24
2018-03-18T09:22:14.519Z,79.90
2018-03-18T09:24:42.946Z,80.84
2018-03-18T09:27:11.126Z,80.50
2018-03-18T09:29:39.437Z,80.73
2018-03-18T09:32:08.291Z,81.11
2018-03-18T09:34:36.483Z,81.07
2018-03-18T09:37:04.614Z,81.93
2018-03-18T09:39:33.109Z,82.40
2018-03-18T09:42:01.502Z,81.94
2018-03-18T09:44:29.868Z,82.55
2018-03-18T09:46:58.151Z,82.59
2018-03-18T09:49:26.726Z,82.63
2018-03-18T09:51:55.414Z,82.75
2018-03-18T09:54:23.793Z,81.90
2018-03-18T09:56:51.969Z,82.08
2018-03-18T09:59:20.346Z,81.82
2018-03-18T10:01:48.514Z,81.03
2018-03-18T10:04:16.730Z,82.15
2018-03-18T10:06:44.962Z,81.76
2018-03-18T10:09:13.221Z,80.99
2018-03-18T10:11:42.952Z,80.41
2018-03-18T10:14:11.218Z,81.46
2018-03-18T10:16:39.504Z,81.41
2018-03-18T10:19:07.982Z,81.74
2018-03-18T10:21:36.006Z,81.11
2018-03-18T10:24:03.925Z,81.03
2018-03-18T10:26:31.969Z,79.78
2018-03-18T10:29:00.556Z,79.39
2018-03-18T10:31:28.846Z,79.23
2018-03-18T10:33:57.080Z,79.09
2018-03-18T10:36:25.588Z,78.59
2018-03-18T10:38:53.875Z,78.74
2018-03-18T10:41:22.057Z,79.39
2018-03-18T10:43:50.514Z,79.67
2018-03-18T10:46:19.054Z,78.12
2018-03-18T10:48:47.448Z,78.08
2018-03-18T10:51:15.958Z,78.55
2018-03-18T10:53:44.026Z,79.11
2018-03-18T10:56:12.304Z,79.15
2018-03-18T10:58:40.611Z,79.30
2018-03-18T11:01:10.569Z,77.87
2018-03-18T11:03:39.717Z,76.14
2018-03-18T11:06:07.893Z,76.24
2018-03-18T11:08:36.360Z,77.70
2018-03-18T11:11:04.723Z,77.74
2018-03-18T11:13:33.008Z,78.64
2018-03-18T11:16:01.286Z,78.04
2018-03-18T11:18:29.757Z,77.11
2018-03-18T11:20:58.257Z,78.28
2018-03-18T11:23:26.700Z,78.77
2018-03-18T11:25:55.220Z,77.93
2018-03-18T11:28:23.351Z,74.88
2018-03-18T11:30:51.856Z,69.52
2018-03-18T11:33:20.240Z,68.07
2018-03-18T11:35:48.722Z,70.54
2018-03-18T11:38:17.205Z,71.19
2018-03-18T11:40:45.368Z,71.51
2018-03-18T11:43:17.537Z,73.60
2018-03-18T11:45:45.663Z,72.24
2018-03-18T11:48:13.893Z,71.24
2018-03-18T11:50:42.572Z,70.32
2018-03-18T11:53:10.726Z,67.72
2018-03-18T11:55:39.325Z,67.85
2018-03-18T11:58:07.846Z,70.75
2018-03-18T12:00:36.087Z,69.78
2018-03-18T12:03:04.430Z,69.28
2018-03-18T12:05:32.842Z,68.39
2018-03-18T12:08:00.891Z,67.67
2018-03-18T12:10:29.205Z,69.11
2018-03-18T12:12:57.565Z,69.82
2018-03-18T12:15:25.487Z,70.72
2018-03-18T12:17:53.711Z,74.05
2018-03-18T12:20:22.289Z,75.28
2018-03-18T12:22:51.076Z,73.54
2018-03-18T12:25:19.354Z,71.39
2018-03-18T12:27:48.032Z,70.14
2018-03-18T12:30:16.426Z,72.05
2018-03-18T12:32:44.685Z,71.07
2018-03-18T12:35:13.072Z,68.45
2018-03-18T12:37:41.449Z,68.42
2018-03-18T12:43:25.700Z,68.60
2018-03-18T12:45:54.386Z,68.48
2018-03-18T12:48:22.777Z,65.83
2018-03-18T12:50:51.771Z,66.39
2018-03-18T12:53:20.353Z,66.47
2018-03-18T12:55:48.538Z,64.29
2018-03-18T12:58:16.500Z,64.18
2018-03-18T13:00:44.447Z,62.99
2018-03-18T13:03:12.681Z,63.35
2018-03-18T13:05:40.632Z,62.68
2018-03-18T13:08:08.633Z,62.55
2018-03-18T13:10:36.545Z,62.63
2018-03-18T13:13:04.559Z,63.97
2018-03-18T13:15:32.404Z,62.02
2018-03-18T13:18:00.389Z,60.55
2018-03-18T13:20:28.405Z,58.94
2018-03-18T13:22:56.802Z,58.43
2018-03-18T13:25:24.795Z,56.72
2018-03-18T13:27:52.708Z,58.03
2018-03-18T13:30:20.750Z,59.92
2018-03-18T13:32:48.592Z,63.55
2018-03-18T13:35:16.546Z,58.24
2018-03-18T13:37:44.553Z,58.63
2018-03-18T13:40:12.530Z,57.80
2018-03-18T13:42:40.572Z,59.90
2018-03-18T13:45:08.548Z,59.43
2018-03-18T13:47:36.554Z,58.63
2018-03-18T13:50:04.631Z,55.15
2018-03-18T13:52:32.666Z,56.80
2018-03-18T13:55:00.574Z,54.51
2018-03-18T13:57:28.544Z,53.46
2018-03-18T13:59:56.579Z,55.02
2018-03-18T14:02:24.578Z,54.58
2018-03-18T14:04:52.791Z,55.11
2018-03-18T14:07:20.770Z,56.09
2018-03-18T14:09:48.782Z,56.71
2018-03-18T14:12:16.748Z,56.40
2018-03-18T14:14:44.716Z,58.07
2018-03-18T14:17:12.701Z,57.91
2018-03-18T14:19:40.664Z,56.75
2018-03-18T14:22:08.688Z,55.52
2018-03-18T14:24:36.823Z,59.24
2018-03-18T14:27:04.781Z,57.78
2018-03-18T14:29:32.669Z,57.85
2018-03-18T14:32:00.570Z,58.20
2018-03-18T14:34:28.538Z,59.77
2018-03-18T14:36:56.482Z,56.71
2018-03-18T14:39:24.431Z,57.19
2018-03-18T14:41:52.398Z,57.24
2018-03-18T14:44:20.325Z,55.81
2018-03-18T14:46:48.336Z,53.07
2018-03-18T14:49:16.364Z,52.89
2018-03-18T14:51:44.330Z,50.51
2018-03-18T14:54:12.386Z,51.09
2018-03-18T14:56:40.326Z,50.00
2018-03-18T14:59:08.269Z,49.35
2018-03-18T15:01:36.345Z,50.47
2018-03-18T15:04:04.398Z,52.06
2018-03-18T15:06:32.490Z,51.42
2018-03-18T15:09:00.510Z,52.27
2018-03-18T15:11:28.424Z,52.81
2018-03-18T15:13:56.482Z,54.03
2018-03-18T15:16:24.521Z,55.15
2018-03-18T15:18:52.499Z,55.03
2018-03-18T15:21:20.454Z,55.35
2018-03-18T15:23:48.340Z,56.08
2018-03-18T15:26:16.349Z,57.82
2018-03-18T15:28:44.356Z,61.45
2018-03-18T15:31:12.311Z,63.77
2018-03-18T15:33:40.252Z,65.18
2018-03-18T15:36:08.224Z,65.25
2018-03-18T15:38:36.285Z,63.71
2018-03-18T15:41:04.326Z,63.33
2018-03-18T15:43:32.212Z,60.58
2018-03-18T15:46:00.211Z,58.53
2018-03-18T15:48:28.154Z,60.84
2018-03-18T15:50:56.091Z,60.80
2018-03-18T15:53:24.050Z,61.69
2018-03-18T15:55:51.962Z,61.29
2018-03-18T15:58:19.958Z,62.70
2018-03-18T16:00:47.958Z,63.57
2018-03-18T16:03:15.920Z,63.12
2018-03-18T16:05:43.978Z,64.44
2018-03-18T16:08:12.109Z,64.57
2018-03-18T16:10:40.097Z,66.50
2018-03-18T16:13:08.082Z,66.66
2018-03-18T16:15:36.002Z,64.96
2018-03-18T16:18:04.484Z,64.61
2018-03-18T16:20:33.180Z,63.86
2018-03-18T16:23:01.539Z,62.80
2018-03-18T16:25:29.829Z,64.43
2018-03-18T16:27:57.761Z,66.08
2018-03-18T16:30:37.492Z,66.37
2018-03-18T16:33:05.535Z,66.01
2018-03-18T16:35:33.896Z,65.42
2018-03-18T16:38:03.209Z,64.55
2018-03-18T16:40:31.773Z,64.66
2018-03-18T16:43:00.070Z,64.49
2018-03-18T16:45:28.222Z,63.22
2018-03-18T16:47:56.214Z,63.77
2018-03-18T16:50:24.281Z,63.55
2018-03-18T16:52:52.332Z,63.19
2018-03-18T16:55:20.294Z,67.81
2018-03-18T16:57:48.279Z,66.36
2018-03-18T17:00:16.236Z,66.19
2018-03-18T17:02:44.253Z,67.62
2018-03-18T17:05:12.209Z,67.73
2018-03-18T17:07:40.175Z,65.59
2018-03-18T17:10:08.417Z,64.92
2018-03-18T17:12:36.400Z,66.39
2018-03-18T17:15:04.770Z,66.47
2018-03-18T17:17:33.150Z,65.09
2018-03-18T17:20:01.312Z,66.12
2018-03-18T17:22:29.803Z,65.36
2018-03-18T17:24:58.138Z,65.54
2018-03-18T17:27:26.249Z,68.67
2018-03-18T17:29:54.422Z,68.99
2018-03-18T17:32:22.698Z,69.64
2018-03-18T17:34:50.978Z,68.80
2018-03-18T17:37:19.653Z,67.44
2018-03-18T17:39:47.646Z,65.95
2018-03-18T17:42:15.602Z,65.28
2018-03-18T17:44:55.728Z,65.83
2018-03-18T17:47:36.960Z,67.04
2018-03-18T17:50:17.282Z,68.59
2018-03-18T17:52:57.931Z,69.03
2018-03-18T17:55:35.133Z,67.64
2018-03-18T17:58:03.129Z,67.12
2018-03-18T18:00:31.477Z,66.12
2018-03-18T18:02:59.667Z,65.82
2018-03-18T18:05:28.861Z,65.19
2018-03-18T18:07:56.805Z,65.35
2018-03-18T18:10:25.017Z,65.23
2018-03-18T18:12:52.957Z,65.33
2018-03-18T18:15:20.964Z,66.41
2018-03-18T18:17:48.933Z,68.78
2018-03-18T18:20:16.930Z,67.56
2018-03-18T18:22:44.870Z,66.76
2018-03-18T18:25:12.928Z,67.99
2018-03-18T18:27:40.876Z,69.78
2018-03-18T18:30:08.906Z,68.61
2018-03-18T18:32:36.829Z,70.62
2018-03-18T18:35:04.878Z,68.81
2018-03-18T18:37:32.859Z,68.39
2018-03-18T18:40:00.954Z,66.92
2018-03-18T18:42:29.017Z,67.25
2018-03-18T18:44:57.057Z,68.60
2018-03-18T18:47:25.052Z,67.39
2018-03-18T18:49:53.030Z,66.52
2018-03-18T18:52:20.998Z,66.33
2018-03-18T18:54:49.000Z,67.53
2018-03-18T18:57:16.993Z,66.59
2018-03-18T18:59:44.983Z,66.90
2018-03-18T19:02:12.996Z,66.45
2018-03-18T19:04:41.010Z,65.59
2018-03-18T19:07:09.065Z,65.65
2018-03-18T19:09:37.137Z,66.98
2018-03-18T19:12:05.343Z,68.93
2018-03-18T19:14:33.311Z,71.02
2018-03-18T19:17:01.343Z,70.44
2018-03-18T19:19:29.331Z,69.18
2018-03-18T19:21:57.322Z,68.20
2018-03-18T19:24:25.295Z,68.60
2018-03-18T19:26:53.288Z,66.94
2018-03-18T19:29:21.214Z,66.58
2018-03-18T19:31:49.164Z,66.33
2018-03-18T19:34:17.130Z,66.15
2018-03-18T19:36:45.155Z,69.41
2018-03-18T19:39:13.303Z,68.25
2018-03-18T19:41:41.410Z,69.00
2018-03-18T19:44:09.417Z,69.04
2018-03-18T19:46:37.460Z,67.81
2018-03-18T19:49:05.546Z,67.88
2018-03-18T19:51:33.623Z,69.74
2018-03-18T19:54:01.607Z,70.53
2018-03-18T19:56:29.638Z,70.98
2018-03-18T19:58:57.607Z,69.07
2018-03-18T20:01:25.675Z,67.60
2018-03-18T20:07:24.562Z,65.74
2018-03-18T20:09:52.537Z,65.89
2018-03-18T20:12:20.682Z,66.10
2018-03-18T20:14:48.657Z,66.88
2018-03-18T20:17:16.675Z,66.09
2018-03-18T20:19:44.692Z,65.60
2018-03-18T20:22:12.735Z,66.36
2018-03-18T20:24:41.738Z,66.03
2018-03-18T20:27:09.746Z,65.94
2018-03-18T20:29:37.668Z,66.04
2018-03-18T20:32:05.615Z,65.59
2018-03-18T20:34:33.502Z,65.77
2018-03-18T20:37:01.509Z,65.59
2018-03-18T20:39:29.546Z,65.95
2018-03-18T20:41:57.596Z,65.44
2018-03-18T20:44:25.651Z,65.75
2018-03-18T20:46:53.654Z,65.85
2018-03-18T20:49:21.642Z,65.63
2018-03-18T20:51:49.615Z,65.17
2018-03-18T20:54:17.602Z,65.08
2018-03-18T20:56:45.613Z,65.26
2018-03-18T20:59:13.606Z,65.20
2018-03-18T21:01:41.641Z,65.31
2018-03-18T21:04:09.657Z,65.27
2018-03-18T21:06:37.617Z,66.11
2018-03-18T21:09:05.662Z,66.69
2018-03-18T21:11:33.547Z,66.06
2018-03-18T21:14:01.849Z,65.67
2018-03-18T21:16:29.831Z,65.83
2018-03-18T21:18:57.823Z,65.70
2018-03-18T21:21:25.755Z,65.09
2018-03-18T21:23:53.811Z,65.14
2018-03-18T21:26:22.905Z,65.15
2018-03-18T21:28:50.838Z,65.16
2018-03-18T21:31:18.840Z,65.62
2018-03-18T21:33:46.777Z,65.07
2018-03-18T21:36:14.623Z,64.48
2018-03-18T21:38:42.546Z,64.48
2018-03-18T21:41:10.516Z,65.26
2018-03-18T21:43:38.453Z,65.51
2018-03-18T21:46:06.442Z,65.28
2018-03-18T21:48:34.410Z,67.28
2018-03-18T21:51:02.462Z,66.68
2018-03-18T21:53:30.394Z,65.72
2018-03-18T21:55:58.412Z,65.30
2018-03-18T21:58:26.458Z,65.51
2018-03-18T22:00:54.450Z,65.13
2018-03-18T22:03:22.466Z,64.87
2018-03-18T22:05:50.442Z,66.81
2018-03-18T22:08:18.444Z,65.38
2018-03-18T22:10:46.417Z,64.97
2018-03-18T22:13:14.378Z,64.76
2018-03-18T22:15:42.578Z,65.83
2018-03-18T22:18:10.560Z,65.66
2018-03-18T22:20:38.493Z,66.44
2018-03-18T22:23:06.405Z,68.63
2018-03-18T22:25:34.429Z,70.87
2018-03-18T22:28:02.418Z,69.91
2018-03-18T22:30:30.404Z,68.04
2018-03-18T22:32:58.411Z,68.35
2018-03-18T22:35:26.458Z,69.64
2018-03-18T22:37:54.510Z,70.20
2018-03-18T22:40:22.543Z,69.66
2018-03-18T22:42:50.567Z,69.11
2018-03-18T22:45:18.557Z,67.91
2018-03-18T22:47:46.526Z,66.51
2018-03-18T22:50:14.704Z,66.40
2018-03-18T22:52:42.841Z,67.54
2018-03-18T22:55:10.841Z,65.72
2018-03-18T22:57:38.873Z,66.99
2018-03-18T23:00:07.017Z,67.29
2018-03-18T23:02:35.100Z,66.35
2018-03-18T23:05:03.132Z,65.85
2018-03-18T23:07:31.073Z,66.52
2018-03-18T23:09:59.150Z,65.60
2018-03-18T23:12:27.069Z,65.23
2018-03-18T23:14:55.001Z,65.49
2018-03-18T23:17:22.993Z,65.31
2018-03-18T23:19:51.011Z,66.28
2018-03-18T23:22:18.952Z,65.76
2018-03-18T23:24:46.889Z,65.33
2018-03-18T23:27:14.837Z,65.27
2018-03-18T23:29:42.865Z,64.94
2018-03-18T23:32:10.891Z,65.18
2018-03-18T23:34:38.924Z,64.96
2018-03-18T23:37:06.874Z,65.30
2018-03-18T23:39:34.886Z,65.31
2018-03-18T23:42:03.022Z,66.24
2018-03-18T23:44:30.983Z,68.06
2018-03-18T23:46:58.913Z,67.46
2018-03-18T23:49:26.856Z,69.98
2018-03-18T23:51:54.864Z,68.92
2018-03-18T23:54:22.860Z,66.67
2018-03-18T23:56:50.842Z,66.99
2018-03-18T23:59:18.814Z,69.36
